createdAt,value
2019-04-11T00:00:41.771Z,16.20
2019-04-11T00:03:11.338Z,16.85
2019-04-11T00:05:41.170Z,16.50
2019-04-11T00:08:10.177Z,18.07
2019-04-11T00:10:39.580Z,16.15
2019-04-11T00:13:17.282Z,16.40
2019-04-11T00:15:38.534Z,17.80
2019-04-11T00:18:08.182Z,16.40
2019-04-11T00:20:37.018Z,16.67
2019-04-11T00:23:06.075Z,16.60
2019-04-11T00:25:35.814Z,15.75
2019-04-11T00:28:05.751Z,16.07
2019-04-11T00:30:34.470Z,17.12
2019-04-11T00:33:03.053Z,15.23
2019-04-11T00:35:31.880Z,15.60
2019-04-11T00:38:01.409Z,16.45
2019-04-11T00:40:30.106Z,16.82
2019-04-11T00:42:58.930Z,14.78
2019-04-11T00:45:27.860Z,15.63
2019-04-11T00:47:57.459Z,14.60
2019-04-11T00:50:26.063Z,14.33
2019-04-11T00:52:54.527Z,16.00
2019-04-11T00:55:23.822Z,16.37
2019-04-11T00:57:53.030Z,15.90
2019-04-11T01:00:22.637Z,14.63
2019-04-11T01:02:51.577Z,18.10
2019-04-11T01:05:21.318Z,15.80
2019-04-11T01:07:49.924Z,15.50
2019-04-11T01:10:18.540Z,17.53
2019-04-11T01:12:47.227Z,14.87
2019-04-11T01:15:17.577Z,14.90
2019-04-11T01:17:46.174Z,14.90
2019-04-11T01:20:15.385Z,17.20
2019-04-11T01:22:44.541Z,15.65
2019-04-11T01:25:13.744Z,14.85
2019-04-11T01:27:43.295Z,16.75
2019-04-11T01:30:13.836Z,15.30
2019-04-11T01:32:42.455Z,14.40
2019-04-11T01:35:11.072Z,15.38
2019-04-11T01:37:40.099Z,14.53
2019-04-11T01:40:09.828Z,15.72
2019-04-11T01:42:39.632Z,15.83
2019-04-11T01:45:09.565Z,16.10
2019-04-11T01:47:59.451Z,16.67
2019-04-11T01:50:29.675Z,14.70
2019-04-11T01:52:58.450Z,14.15
2019-04-11T01:55:26.963Z,14.87
2019-04-11T01:57:55.422Z,16.65
2019-04-11T02:00:26.076Z,14.45
2019-04-11T02:02:56.982Z,15.63
2019-04-11T02:05:27.508Z,14.75
2019-04-11T02:07:55.964Z,14.55
2019-04-11T02:10:24.611Z,14.85
2019-04-11T02:12:53.333Z,13.62
2019-04-11T02:15:22.560Z,17.32
2019-04-11T02:17:51.128Z,13.72
2019-04-11T02:20:20.673Z,16.45
2019-04-11T02:23:03.211Z,14.10
2019-04-11T02:25:36.654Z,16.83
2019-04-11T02:28:07.233Z,14.78
2019-04-11T02:30:40.929Z,17.17
2019-04-11T02:33:09.985Z,14.25
2019-04-11T02:35:39.915Z,14.07
2019-04-11T02:38:11.791Z,15.00
2019-04-11T02:40:41.088Z,14.13
2019-04-11T02:43:11.730Z,14.15
2019-04-11T02:45:54.626Z,14.00
2019-04-11T02:48:13.638Z,16.10
2019-04-11T02:50:43.327Z,16.00
2019-04-11T02:53:12.604Z,18.52
2019-04-11T02:55:43.585Z,14.78
2019-04-11T02:58:13.134Z,15.03
2019-04-11T03:00:45.004Z,16.95
2019-04-11T03:03:14.950Z,15.80
2019-04-11T03:05:46.304Z,15.95
2019-04-11T03:08:18.387Z,14.45
2019-04-11T03:10:45.998Z,14.80
2019-04-11T03:13:16.573Z,14.03
2019-04-11T03:16:00.480Z,14.63
2019-04-11T03:18:39.078Z,14.65
2019-04-11T03:20:53.169Z,13.83
2019-04-11T03:23:20.942Z,14.68
2019-04-11T03:25:49.092Z,15.10
2019-04-11T03:28:22.926Z,13.93
2019-04-11T03:31:20.265Z,18.62
2019-04-11T03:34:12.373Z,14.00
2019-04-11T03:36:37.559Z,14.40
2019-04-11T03:38:44.330Z,17.05
2019-04-11T03:41:07.164Z,15.45
2019-04-11T03:43:31.447Z,14.95
2019-04-11T03:46:11.871Z,14.10
2019-04-11T03:48:33.433Z,16.65
2019-04-11T03:50:54.311Z,13.80
2019-04-11T03:53:25.302Z,16.48
2019-04-11T03:55:53.854Z,15.40
2019-04-11T03:58:23.937Z,15.58
2019-04-11T04:00:57.161Z,15.63
2019-04-11T04:03:24.561Z,14.65
2019-04-11T04:05:55.153Z,14.33
2019-04-11T04:08:26.828Z,16.20
2019-04-11T04:11:12.584Z,17.32
2019-04-11T04:13:45.379Z,15.93
2019-04-11T04:16:24.431Z,15.85
2019-04-11T04:18:47.814Z,16.97
2019-04-11T04:21:31.170Z,14.07
2019-04-11T04:24:03.694Z,16.52
2019-04-11T04:26:31.337Z,16.12
2019-04-11T04:29:00.535Z,14.60
2019-04-11T04:31:30.803Z,15.53
2019-04-11T04:33:59.645Z,17.23
2019-04-11T04:36:29.428Z,16.25
2019-04-11T04:38:59.208Z,14.80
2019-04-11T04:41:39.205Z,16.05
2019-04-11T04:44:01.958Z,16.87
2019-04-11T04:46:47.006Z,19.20
2019-04-11T04:49:00.650Z,18.50
2019-04-11T04:51:31.034Z,15.30
2019-04-11T04:54:00.441Z,15.08
2019-04-11T04:56:31.759Z,16.20
2019-04-11T04:58:59.204Z,15.80
2019-04-11T05:01:29.025Z,16.00
2019-04-11T05:03:58.357Z,16.97
2019-04-11T05:06:28.115Z,15.68
2019-04-11T05:08:58.141Z,18.75
2019-04-11T05:11:28.015Z,17.43
2019-04-11T05:13:58.568Z,16.23
2019-04-11T05:16:27.282Z,15.70
2019-04-11T05:18:56.676Z,17.60
2019-04-11T05:21:26.091Z,17.60
2019-04-11T05:23:55.580Z,15.23
2019-04-11T05:26:25.680Z,16.15
2019-04-11T05:28:55.180Z,17.10
2019-04-11T05:31:24.828Z,16.25
2019-04-11T05:33:53.902Z,19.17
2019-04-11T05:36:22.752Z,17.87
2019-04-11T05:38:51.351Z,16.17
2019-04-11T05:41:21.636Z,17.27
2019-04-11T05:46:35.477Z,16.42
2019-04-11T05:49:05.411Z,15.68
2019-04-11T05:51:39.242Z,16.42
2019-04-11T05:54:07.347Z,16.10
2019-04-11T05:56:35.456Z,16.95
2019-04-11T05:59:05.747Z,18.40
2019-04-11T06:01:36.318Z,16.90
2019-04-11T06:04:07.805Z,16.15
2019-04-11T06:06:56.649Z,15.72
2019-04-11T06:09:30.357Z,19.23
2019-04-11T06:12:01.454Z,17.12
2019-04-11T06:14:31.637Z,16.42
2019-04-11T06:17:01.852Z,16.52
2019-04-11T06:19:48.026Z,18.52
2019-04-11T06:22:16.930Z,17.55
2019-04-11T06:24:55.007Z,18.30
2019-04-11T06:27:28.580Z,15.50
2019-04-11T06:30:15.930Z,16.87
2019-04-11T06:32:46.206Z,17.47
2019-04-11T06:35:16.381Z,18.10
2019-04-11T06:38:02.975Z,15.95
2019-04-11T06:40:38.823Z,17.95
2019-04-11T06:43:09.895Z,18.30
2019-04-11T06:45:43.978Z,16.33
2019-04-11T06:48:17.833Z,18.12
2019-04-11T06:50:59.937Z,19.95
2019-04-11T06:53:30.175Z,18.15
2019-04-11T06:56:06.154Z,17.80
2019-04-11T06:58:37.319Z,17.57
2019-04-11T07:01:07.539Z,16.73
2019-04-11T07:03:38.566Z,17.67
2019-04-11T07:06:21.762Z,17.75
2019-04-11T07:08:52.415Z,17.10
2019-04-11T07:11:23.437Z,18.07
2019-04-11T07:13:53.661Z,19.45
2019-04-11T07:16:22.192Z,17.40
2019-04-11T07:19:09.218Z,18.33
2019-04-11T07:21:37.856Z,18.40
2019-04-11T07:24:23.132Z,17.07
2019-04-11T07:26:54.364Z,19.02
2019-04-11T07:29:25.682Z,17.40
2019-04-11T07:32:11.784Z,17.32
2019-04-11T07:34:54.423Z,18.57
2019-04-11T07:37:27.964Z,17.20
2019-04-11T07:40:05.713Z,18.02
2019-04-11T07:42:53.202Z,17.82
2019-04-11T07:45:41.831Z,16.42
2019-04-11T07:48:15.135Z,20.13
2019-04-11T07:50:44.383Z,18.27
2019-04-11T07:53:14.642Z,17.30
2019-04-11T07:55:44.498Z,19.05
2019-04-11T07:58:23.924Z,17.48
2019-04-11T08:01:06.945Z,18.62
2019-04-11T08:03:55.728Z,16.35
2019-04-11T08:06:42.613Z,20.65
2019-04-11T08:09:13.209Z,18.57
2019-04-11T08:11:46.053Z,17.50
2019-04-11T08:14:16.729Z,20.08
2019-04-11T08:16:57.386Z,19.57
2019-04-11T08:19:28.832Z,19.85
2019-04-11T08:22:14.802Z,18.75
2019-04-11T08:25:01.346Z,19.50
2019-04-11T08:27:54.888Z,18.50
2019-04-11T08:30:20.128Z,18.35
2019-04-11T08:32:50.296Z,18.83
2019-04-11T08:35:40.043Z,21.33
2019-04-11T08:38:16.634Z,18.37
2019-04-11T08:40:47.155Z,19.37
2019-04-11T08:43:23.419Z,17.70
2019-04-11T08:46:10.948Z,19.23
2019-04-11T08:48:57.384Z,19.85
2019-04-11T08:51:27.667Z,19.82
2019-04-11T08:54:07.028Z,19.17
2019-04-11T08:56:37.546Z,18.60
2019-04-11T08:59:13.481Z,19.70
2019-04-11T09:01:42.465Z,18.60
2019-04-11T09:04:30.147Z,18.75
2019-04-11T09:06:59.583Z,19.55
2019-04-11T09:09:45.543Z,20.08
2019-04-11T09:12:14.759Z,19.55
2019-04-11T09:14:44.893Z,18.77
2019-04-11T09:17:16.352Z,18.20
2019-04-11T09:19:47.305Z,19.40
2019-04-11T09:22:20.540Z,19.95
2019-04-11T09:25:05.811Z,19.53
2019-04-11T09:27:53.985Z,21.97
2019-04-11T09:30:30.573Z,21.95
2019-04-11T09:33:17.281Z,22.55
2019-04-11T09:35:59.760Z,22.42
2019-04-11T09:38:48.642Z,18.80
2019-04-11T09:41:35.191Z,18.80
2019-04-11T09:44:06.494Z,20.77
2019-04-11T09:46:36.794Z,21.95
2019-04-11T09:49:06.932Z,20.17
2019-04-11T09:51:53.633Z,21.55
2019-04-11T09:54:24.038Z,21.85
2019-04-11T09:57:02.721Z,21.48
2019-04-11T09:59:33.471Z,20.68
2019-04-11T10:02:20.902Z,21.85
2019-04-11T10:04:52.236Z,22.07
2019-04-11T10:07:31.242Z,20.20
2019-04-11T10:10:02.557Z,21.35
2019-04-11T10:12:49.113Z,20.95
2019-04-11T10:15:19.382Z,23.23
2019-04-11T10:18:05.615Z,21.73
2019-04-11T10:20:35.045Z,21.23
2019-04-11T10:23:16.855Z,20.10
2019-04-11T10:25:45.637Z,21.52
2019-04-11T10:28:21.823Z,23.50
2019-04-11T10:31:02.138Z,21.45
2019-04-11T10:33:47.091Z,20.75
2019-04-11T10:36:23.315Z,20.48
2019-04-11T10:41:29.119Z,21.55
2019-04-11T10:43:57.644Z,21.70
2019-04-11T10:46:34.003Z,21.42
2019-04-11T10:49:07.488Z,21.45
2019-04-11T10:51:41.187Z,21.27
2019-04-11T10:54:12.072Z,21.15
2019-04-11T10:56:44.687Z,21.82
2019-04-11T10:59:14.001Z,20.75
2019-04-11T11:01:46.628Z,21.82
2019-04-11T11:04:17.887Z,21.37
2019-04-11T11:06:48.424Z,22.87
2019-04-11T11:09:28.243Z,23.92
2019-04-11T11:12:13.291Z,21.90
2019-04-11T11:14:59.415Z,21.50
2019-04-11T11:18:12.677Z,23.35
2019-04-11T11:20:38.527Z,25.13
2019-04-11T11:23:21.121Z,22.98
2019-04-11T11:25:52.879Z,22.10
2019-04-11T11:28:23.826Z,23.30
2019-04-11T11:31:12.100Z,23.10
2019-04-11T11:33:42.695Z,22.80
2019-04-11T11:36:19.382Z,22.10
2019-04-11T11:38:50.210Z,23.80
2019-04-11T11:41:36.503Z,23.77
2019-04-11T11:44:07.643Z,25.27
2019-04-11T11:46:40.779Z,23.98
2019-04-11T11:49:10.412Z,23.95
2019-04-11T11:51:59.288Z,23.60
2019-04-11T11:54:29.417Z,23.73
2019-04-11T11:56:58.260Z,23.92
2019-04-11T11:59:30.259Z,24.12
2019-04-11T12:02:00.284Z,24.82
2019-04-11T12:04:37.826Z,23.45
2019-04-11T12:07:08.665Z,23.32
2019-04-11T12:09:55.091Z,24.17
2019-04-11T12:12:25.256Z,23.38
2019-04-11T12:14:57.802Z,23.90
2019-04-11T12:17:36.160Z,23.25
2019-04-11T12:20:11.680Z,22.67
2019-04-11T12:22:40.141Z,24.05
2019-04-11T12:25:13.143Z,25.17
2019-04-11T12:27:43.740Z,22.73
2019-04-11T12:30:14.023Z,23.30
2019-04-11T12:32:44.421Z,22.00
2019-04-11T12:35:17.416Z,23.20
2019-04-11T12:37:54.464Z,22.37
2019-04-11T12:40:42.899Z,22.85
2019-04-11T12:43:16.265Z,22.67
2019-04-11T12:46:02.813Z,23.07
2019-04-11T12:48:32.906Z,22.60
2019-04-11T12:51:03.164Z,22.02
2019-04-11T12:53:31.644Z,23.47
2019-04-11T12:56:01.739Z,23.15
2019-04-11T12:58:46.783Z,23.00
2019-04-11T13:01:25.790Z,22.40
2019-04-11T13:04:08.060Z,22.62
2019-04-11T13:06:41.444Z,22.93
2019-04-11T13:09:17.544Z,23.57
2019-04-11T13:11:50.695Z,24.57
2019-04-11T13:14:23.254Z,24.75
2019-04-11T13:17:09.431Z,24.72
2019-04-11T13:19:45.704Z,24.30
2019-04-11T13:22:18.591Z,24.90
2019-04-11T13:24:48.707Z,24.18
2019-04-11T13:27:21.999Z,23.05
2019-04-11T13:29:52.173Z,23.05
2019-04-11T13:32:27.641Z,22.35
2019-04-11T13:35:00.866Z,22.70
2019-04-11T13:37:47.441Z,23.30
2019-04-11T13:40:20.139Z,23.20
2019-04-11T13:43:06.779Z,25.15
2019-04-11T13:45:36.952Z,25.15
2019-04-11T13:48:10.118Z,25.57
2019-04-11T13:50:38.919Z,25.20
2019-04-11T13:53:25.625Z,23.57
2019-04-11T13:55:54.102Z,23.38
2019-04-11T13:58:33.182Z,22.95
2019-04-11T14:01:01.721Z,20.85
2019-04-11T14:03:31.887Z,23.00
2019-04-11T14:06:04.492Z,22.62
2019-04-11T14:08:40.894Z,21.68
2019-04-11T14:11:14.202Z,20.65
2019-04-11T14:13:44.584Z,21.65
2019-04-11T14:16:14.896Z,21.30
2019-04-11T14:18:57.023Z,21.12
2019-04-11T14:21:28.499Z,20.70
2019-04-11T14:23:58.672Z,20.48
2019-04-11T14:26:28.806Z,21.12
2019-04-11T14:28:58.531Z,20.60
2019-04-11T14:31:28.876Z,20.30
2019-04-11T14:33:59.013Z,21.30
2019-04-11T14:36:43.863Z,21.80
2019-04-11T14:39:14.223Z,22.30
2019-04-11T14:42:02.225Z,22.43
2019-04-11T14:44:34.949Z,21.93
2019-04-11T14:47:07.520Z,21.77
2019-04-11T14:49:40.580Z,21.17
2019-04-11T14:52:16.987Z,22.22
2019-04-11T14:54:48.861Z,21.65
2019-04-11T14:57:23.389Z,21.27
2019-04-11T14:59:54.673Z,20.10
2019-04-11T15:02:24.868Z,19.95
2019-04-11T15:05:06.091Z,19.27
2019-04-11T15:07:36.062Z,20.43
2019-04-11T15:10:22.995Z,20.12
2019-04-11T15:12:52.532Z,21.65
2019-04-11T15:15:34.809Z,21.73
2019-04-11T15:18:04.942Z,22.87
2019-04-11T15:20:42.400Z,22.27
2019-04-11T15:23:12.701Z,20.45
2019-04-11T15:25:45.829Z,20.77
2019-04-11T15:28:19.420Z,21.05
2019-04-11T15:30:49.746Z,20.77
2019-04-11T15:33:31.671Z,20.48
2019-04-11T15:36:01.771Z,20.80
2019-04-11T15:38:49.711Z,22.07
2019-04-11T15:41:18.176Z,21.60
2019-04-11T15:44:00.262Z,21.03
2019-04-11T15:46:30.299Z,20.95
2019-04-11T15:49:21.130Z,20.85
2019-04-11T15:51:47.384Z,20.80
2019-04-11T15:54:17.730Z,20.68
2019-04-11T15:56:53.663Z,20.17
2019-04-11T15:59:38.700Z,20.27
2019-04-11T16:02:08.970Z,20.80
2019-04-11T16:04:47.972Z,20.97
2019-04-11T16:07:37.382Z,20.10
2019-04-11T16:10:11.708Z,19.87
2019-04-11T16:12:42.571Z,19.90
2019-04-11T16:15:12.886Z,19.90
2019-04-11T16:17:44.638Z,19.70
2019-04-11T16:20:17.865Z,20.53
2019-04-11T16:22:54.959Z,19.70
2019-04-11T16:25:22.643Z,20.27
2019-04-11T16:28:09.178Z,21.10
2019-04-11T16:30:39.808Z,21.52
2019-04-11T16:33:22.275Z,20.23
2019-04-11T16:35:52.410Z,21.80
2019-04-11T16:38:25.175Z,21.68
2019-04-11T16:41:11.555Z,20.40
2019-04-11T16:43:41.736Z,21.95
2019-04-11T16:46:15.071Z,21.60
2019-04-11T16:48:43.558Z,22.07
2019-04-11T16:51:12.033Z,22.35
2019-04-11T16:53:40.845Z,21.80
2019-04-11T16:56:12.631Z,21.45
2019-04-11T16:58:39.603Z,21.35
2019-04-11T17:01:08.163Z,21.10
2019-04-11T17:03:36.623Z,21.45
2019-04-11T17:06:06.886Z,21.00
2019-04-11T17:08:40.444Z,20.97
2019-04-11T17:11:10.547Z,20.17
2019-04-11T17:13:39.081Z,21.62
2019-04-11T17:16:09.534Z,22.30
2019-04-11T17:18:38.111Z,22.02
2019-04-11T17:21:08.566Z,20.75
2019-04-11T17:23:37.227Z,21.33
2019-04-11T17:26:06.681Z,21.17
2019-04-11T17:28:35.513Z,21.07
2019-04-11T17:31:04.145Z,20.95
2019-04-11T17:33:32.607Z,22.07
2019-04-11T17:36:02.839Z,21.95
2019-04-11T17:38:31.276Z,22.10
2019-04-11T17:40:59.811Z,22.02
2019-04-11T17:43:28.311Z,23.40
2019-04-11T17:45:57.639Z,22.93
2019-04-11T17:48:26.521Z,21.20
2019-04-11T17:50:55.251Z,21.77
2019-04-11T17:53:24.927Z,23.02
2019-04-11T17:55:54.202Z,20.65
2019-04-11T17:58:26.899Z,20.43
2019-04-11T18:00:55.811Z,22.10
2019-04-11T18:03:24.435Z,20.95
2019-04-11T18:05:52.987Z,21.37
2019-04-11T18:08:21.805Z,23.00
2019-04-11T18:10:50.379Z,18.10
2019-04-11T18:13:19.071Z,19.60
2019-04-11T18:15:47.635Z,19.45
2019-04-11T18:18:16.236Z,19.60
2019-04-11T18:20:44.810Z,19.12
2019-04-11T18:23:13.490Z,19.87
2019-04-11T18:25:42.143Z,19.92
2019-04-11T18:28:11.138Z,18.70
2019-04-11T18:30:40.310Z,19.17
2019-04-11T18:33:09.478Z,18.83
2019-04-11T18:35:37.945Z,19.10
2019-04-11T18:38:06.403Z,18.50
2019-04-11T18:40:35.029Z,20.10
2019-04-11T18:43:03.913Z,19.35
2019-04-11T18:45:33.178Z,19.37
2019-04-11T18:48:01.964Z,17.67
2019-04-11T18:50:30.839Z,19.00
2019-04-11T18:53:00.125Z,17.65
2019-04-11T18:55:28.871Z,18.23
2019-04-11T18:57:57.376Z,19.75
2019-04-11T19:00:26.755Z,18.23
2019-04-11T19:02:55.360Z,18.60
2019-04-11T19:05:29.079Z,19.32
2019-04-11T19:07:54.159Z,17.98
2019-04-11T19:10:22.914Z,17.12
2019-04-11T19:12:51.540Z,19.30
2019-04-11T19:15:20.161Z,18.20
2019-04-11T19:17:48.717Z,16.73
2019-04-11T19:20:19.116Z,17.87
2019-04-11T19:22:47.537Z,17.85
2019-04-11T19:25:16.063Z,16.45
2019-04-11T19:27:44.604Z,17.17
2019-04-11T19:30:13.432Z,16.85
2019-04-11T19:32:41.887Z,16.17
2019-04-11T19:35:10.453Z,17.30
2019-04-11T19:37:41.875Z,17.57
2019-04-11T19:40:10.109Z,16.00
2019-04-11T19:42:39.247Z,15.45
2019-04-11T19:45:08.112Z,16.97
2019-04-11T19:47:36.595Z,17.77
2019-04-11T19:50:07.105Z,17.40
2019-04-11T19:52:45.351Z,15.50
2019-04-11T19:55:08.442Z,17.32
2019-04-11T19:57:36.905Z,17.80
2019-04-11T20:00:07.799Z,15.60
2019-04-11T20:02:36.258Z,15.95
2019-04-11T20:05:05.179Z,16.97
2019-04-11T20:07:33.639Z,17.25
2019-04-11T20:10:02.112Z,15.85
2019-04-11T20:12:30.752Z,15.03
2019-04-11T20:14:59.300Z,15.77
2019-04-11T20:17:27.760Z,16.20
2019-04-11T20:20:01.444Z,15.88
2019-04-11T20:22:26.803Z,16.93
2019-04-11T20:24:55.543Z,15.30
2019-04-11T20:27:24.170Z,15.25
2019-04-11T20:29:55.252Z,16.93
2019-04-11T20:32:22.843Z,15.83
2019-04-11T20:34:51.334Z,14.10
2019-04-11T20:37:19.861Z,14.75
2019-04-11T20:39:48.393Z,14.27
2019-04-11T20:42:17.295Z,15.83
2019-04-11T20:44:45.888Z,17.35
2019-04-11T20:47:16.716Z,15.85
2019-04-11T20:49:48.610Z,15.45
2019-04-11T20:52:17.203Z,14.43
2019-04-11T20:54:45.739Z,13.90
2019-04-11T20:57:25.151Z,14.58
2019-04-11T20:59:44.677Z,15.78
2019-04-11T21:02:13.302Z,15.58
2019-04-11T21:04:41.892Z,14.58
2019-04-11T21:07:10.425Z,15.57
2019-04-11T21:09:38.908Z,16.07
2019-04-11T21:12:08.162Z,14.40
2019-04-11T21:14:36.827Z,14.30
2019-04-11T21:17:05.378Z,14.38
2019-04-11T21:19:33.863Z,13.93
2019-04-11T21:22:02.328Z,13.30
2019-04-11T21:24:31.476Z,13.00
2019-04-11T21:27:00.139Z,14.00
2019-04-11T21:29:30.197Z,14.15
2019-04-11T21:32:00.889Z,14.18
2019-04-11T21:34:29.952Z,12.95
2019-04-11T21:37:01.704Z,13.98
2019-04-11T21:39:30.046Z,16.48
2019-04-11T21:41:58.628Z,13.50
2019-04-11T21:44:27.150Z,14.50
2019-04-11T21:46:55.688Z,13.70
2019-04-11T21:49:24.167Z,14.00
2019-04-11T21:51:52.632Z,15.18
2019-04-11T21:54:21.167Z,14.45
2019-04-11T21:56:50.394Z,14.00
2019-04-11T21:59:20.316Z,14.03
2019-04-11T22:01:49.225Z,14.60
2019-04-11T22:04:18.023Z,15.70
2019-04-11T22:06:46.575Z,14.38
2019-04-11T22:09:15.449Z,15.30
2019-04-11T22:11:43.943Z,14.70
2019-04-11T22:14:12.560Z,13.50
2019-04-11T22:16:44.101Z,14.40
2019-04-11T22:19:14.003Z,14.47
2019-04-11T22:21:45.040Z,15.18
2019-04-11T22:24:12.213Z,14.53
2019-04-11T22:26:40.748Z,14.98
2019-04-11T22:29:09.240Z,14.95
2019-04-11T22:31:37.760Z,15.35
2019-04-11T22:34:16.655Z,16.23
2019-04-11T22:36:45.182Z,15.32
2019-04-11T22:39:13.639Z,16.23
2019-04-11T22:41:42.125Z,16.43
2019-04-11T22:44:10.592Z,16.27
2019-04-11T22:46:39.131Z,17.32
2019-04-11T22:49:08.869Z,16.12
2019-04-11T22:51:42.560Z,16.82
2019-04-11T22:54:08.152Z,15.75
2019-04-11T22:56:36.639Z,16.10
2019-04-11T22:59:05.158Z,16.70
2019-04-11T23:01:34.328Z,18.82
2019-04-11T23:04:03.235Z,16.48
2019-04-11T23:06:31.761Z,14.80
2019-04-11T23:09:00.264Z,15.53
2019-04-11T23:11:28.795Z,17.07
2019-04-11T23:13:57.391Z,16.62
2019-04-11T23:16:25.848Z,16.48
2019-04-11T23:18:54.347Z,17.30
2019-04-11T23:21:22.803Z,18.23
2019-04-11T23:23:51.579Z,15.63
2019-04-11T23:26:20.069Z,15.98
2019-04-11T23:28:48.672Z,16.35
2019-04-11T23:31:19.856Z,18.27
2019-04-11T23:33:51.674Z,16.62
2019-04-11T23:36:18.811Z,16.87
2019-04-11T23:38:48.289Z,17.17
2019-04-11T23:41:19.619Z,17.92
2019-04-11T23:43:49.733Z,16.70
2019-04-11T23:46:18.922Z,16.45
2019-04-11T23:48:47.368Z,16.40
2019-04-11T23:51:15.822Z,16.25
2019-04-11T23:53:44.276Z,16.60
2019-04-11T23:56:12.826Z,16.80
2019-04-11T23:58:41.285Z,16.02
